sensor_id;sensor_type;location;lat;lon;timestamp;P1;durP1;ratioP1;P2;durP2;ratioP2
16426;SDS011;8322;-33.900;151.170;2022-11-13T00:02:06;35.95;;;22.83;;
16426;SDS011;8322;-33.900;151.170;2022-11-13T00:04:35;31.42;;;22.63;;
16426;SDS011;8322;-33.900;151.170;2022-11-13T00:07:05;43.83;;;28.13;;
16426;SDS011;8322;-33.900;151.170;2022-11-13T00:09:35;33.60;;;24.33;;
16426;SDS011;8322;-33.900;151.170;2022-11-13T00:12:04;30.55;;;21.45;;
16426;SDS011;8322;-33.900;151.170;2022-11-13T00:14:34;27.52;;;21.67;;
16426;SDS011;8322;-33.900;151.170;2022-11-13T00:17:05;36.72;;;24.90;;
16426;SDS011;8322;-33.900;151.170;2022-11-13T00:19:35;32.08;;;23.25;;
16426;SDS011;8322;-33.900;151.170;2022-11-13T00:22:04;31.02;;;22.83;;
16426;SDS011;8322;-33.900;151.170;2022-11-13T00:24:34;29.45;;;22.42;;
16426;SDS011;8322;-33.900;151.170;2022-11-13T00:27:03;35.58;;;24.65;;
16426;SDS011;8322;-33.900;151.170;2022-11-13T00:29:33;30.75;;;23.17;;
16426;SDS011;8322;-33.900;151.170;2022-11-13T00:32:03;34.65;;;25.20;;
16426;SDS011;8322;-33.900;151.170;2022-11-13T00:34:34;29.83;;;23.00;;
16426;SDS011;8322;-33.900;151.170;2022-11-13T00:37:04;32.22;;;24.13;;
16426;SDS011;8322;-33.900;151.170;2022-11-13T00:39:33;34.33;;;25.35;;
16426;SDS011;8322;-33.900;151.170;2022-11-13T00:42:03;28.10;;;23.20;;
16426;SDS011;8322;-33.900;151.170;2022-11-13T00:44:32;32.95;;;23.80;;
16426;SDS011;8322;-33.900;151.170;2022-11-13T00:47:02;31.80;;;24.33;;
16426;SDS011;8322;-33.900;151.170;2022-11-13T00:49:31;31.38;;;24.35;;
16426;SDS011;8322;-33.900;151.170;2022-11-13T00:52:03;30.50;;;23.48;;
16426;SDS011;8322;-33.900;151.170;2022-11-13T00:54:32;30.15;;;21.95;;
16426;SDS011;8322;-33.900;151.170;2022-11-13T00:57:02;27.70;;;22.73;;
16426;SDS011;8322;-33.900;151.170;2022-11-13T00:59:31;28.45;;;23.25;;
16426;SDS011;8322;-33.900;151.170;2022-11-13T01:02:01;28.20;;;22.33;;
16426;SDS011;8322;-33.900;151.170;2022-11-13T01:04:31;25.40;;;20.77;;
16426;SDS011;8322;-33.900;151.170;2022-11-13T01:07:00;26.60;;;22.17;;
16426;SDS011;8322;-33.900;151.170;2022-11-13T01:09:31;23.42;;;19.42;;
16426;SDS011;8322;-33.900;151.170;2022-11-13T01:12:01;25.42;;;20.63;;
16426;SDS011;8322;-33.900;151.170;2022-11-13T01:14:30;30.58;;;21.42;;
16426;SDS011;8322;-33.900;151.170;2022-11-13T01:17:00;25.15;;;19.83;;
16426;SDS011;8322;-33.900;151.170;2022-11-13T01:19:30;21.88;;;18.10;;
16426;SDS011;8322;-33.900;151.170;2022-11-13T01:21:59;24.98;;;19.50;;
16426;SDS011;8322;-33.900;151.170;2022-11-13T01:24:29;24.15;;;18.23;;
16426;SDS011;8322;-33.900;151.170;2022-11-13T01:27:01;21.67;;;17.80;;
16426;SDS011;8322;-33.900;151.170;2022-11-13T01:29:31;21.58;;;16.58;;
16426;SDS011;8322;-33.900;151.170;2022-11-13T01:32:00;20.02;;;15.65;;
16426;SDS011;8322;-33.900;151.170;2022-11-13T01:34:30;22.90;;;16.50;;
16426;SDS011;8322;-33.900;151.170;2022-11-13T01:37:02;22.73;;;16.17;;
16426;SDS011;8322;-33.900;151.170;2022-11-13T01:39:32;17.85;;;13.27;;
16426;SDS011;8322;-33.900;151.170;2022-11-13T01:42:03;20.35;;;14.10;;
16426;SDS011;8322;-33.900;151.170;2022-11-13T01:44:46;21.33;;;15.35;;
16426;SDS011;8322;-33.900;151.170;2022-11-13T01:47:16;16.50;;;12.45;;
16426;SDS011;8322;-33.900;151.170;2022-11-13T01:49:46;15.65;;;11.40;;
16426;SDS011;8322;-33.900;151.170;2022-11-13T01:52:17;11.82;;;9.77;;
16426;SDS011;8322;-33.900;151.170;2022-11-13T01:54:47;13.07;;;9.07;;
16426;SDS011;8322;-33.900;151.170;2022-11-13T01:57:21;11.57;;;9.95;;
16426;SDS011;8322;-33.900;151.170;2022-11-13T01:59:52;13.70;;;9.95;;
16426;SDS011;8322;-33.900;151.170;2022-11-13T02:02:23;15.85;;;10.77;;
16426;SDS011;8322;-33.900;151.170;2022-11-13T02:04:52;14.85;;;10.70;;
16426;SDS011;8322;-33.900;151.170;2022-11-13T02:07:22;15.48;;;11.13;;
16426;SDS011;8322;-33.900;151.170;2022-11-13T02:09:52;12.63;;;9.65;;
16426;SDS011;8322;-33.900;151.170;2022-11-13T02:12:27;12.85;;;8.68;;
16426;SDS011;8322;-33.900;151.170;2022-11-13T02:14:58;8.90;;;7.65;;
16426;SDS011;8322;-33.900;151.170;2022-11-13T02:17:29;10.02;;;7.78;;
16426;SDS011;8322;-33.900;151.170;2022-11-13T02:19:59;9.32;;;6.40;;
16426;SDS011;8322;-33.900;151.170;2022-11-13T02:22:30;9.98;;;6.93;;
16426;SDS011;8322;-33.900;151.170;2022-11-13T02:25:03;8.48;;;6.53;;
16426;SDS011;8322;-33.900;151.170;2022-11-13T02:27:35;8.27;;;5.45;;
16426;SDS011;8322;-33.900;151.170;2022-11-13T02:30:12;5.65;;;4.38;;
16426;SDS011;8322;-33.900;151.170;2022-11-13T02:32:42;7.97;;;5.28;;
16426;SDS011;8322;-33.900;151.170;2022-11-13T02:35:12;5.75;;;4.53;;
16426;SDS011;8322;-33.900;151.170;2022-11-13T02:37:43;5.45;;;4.50;;
16426;SDS011;8322;-33.900;151.170;2022-11-13T02:40:14;6.07;;;5.47;;
16426;SDS011;8322;-33.900;151.170;2022-11-13T02:42:44;6.05;;;4.90;;
16426;SDS011;8322;-33.900;151.170;2022-11-13T02:45:14;6.20;;;5.15;;
16426;SDS011;8322;-33.900;151.170;2022-11-13T02:47:43;6.85;;;4.90;;
16426;SDS011;8322;-33.900;151.170;2022-11-13T02:50:13;5.90;;;5.00;;
16426;SDS011;8322;-33.900;151.170;2022-11-13T02:52:42;5.25;;;4.43;;
16426;SDS011;8322;-33.900;151.170;2022-11-13T02:55:12;8.10;;;4.82;;
16426;SDS011;8322;-33.900;151.170;2022-11-13T02:57:43;5.65;;;4.30;;
16426;SDS011;8322;-33.900;151.170;2022-11-13T03:00:16;8.10;;;4.82;;
16426;SDS011;8322;-33.900;151.170;2022-11-13T03:02:46;5.43;;;4.13;;
16426;SDS011;8322;-33.900;151.170;2022-11-13T03:05:15;4.35;;;3.88;;
16426;SDS011;8322;-33.900;151.170;2022-11-13T03:07:45;5.35;;;3.90;;
16426;SDS011;8322;-33.900;151.170;2022-11-13T03:10:14;6.28;;;4.60;;
16426;SDS011;8322;-33.900;151.170;2022-11-13T03:12:46;7.72;;;4.32;;
16426;SDS011;8322;-33.900;151.170;2022-11-13T03:15:15;5.78;;;4.10;;
16426;SDS011;8322;-33.900;151.170;2022-11-13T03:17:45;5.60;;;4.65;;
16426;SDS011;8322;-33.900;151.170;2022-11-13T03:20:15;5.20;;;4.03;;
16426;SDS011;8322;-33.900;151.170;2022-11-13T03:22:44;5.55;;;4.50;;
16426;SDS011;8322;-33.900;151.170;2022-11-13T03:25:14;5.32;;;4.32;;
16426;SDS011;8322;-33.900;151.170;2022-11-13T03:27:45;4.32;;;3.65;;
16426;SDS011;8322;-33.900;151.170;2022-11-13T03:30:15;4.47;;;3.78;;
16426;SDS011;8322;-33.900;151.170;2022-11-13T03:32:44;6.80;;;4.60;;
16426;SDS011;8322;-33.900;151.170;2022-11-13T03:35:14;4.13;;;3.72;;
16426;SDS011;8322;-33.900;151.170;2022-11-13T03:37:43;4.78;;;4.20;;
16426;SDS011;8322;-33.900;151.170;2022-11-13T03:40:13;4.80;;;4.13;;
16426;SDS011;8322;-33.900;151.170;2022-11-13T03:42:42;6.30;;;4.32;;
16426;SDS011;8322;-33.900;151.170;2022-11-13T03:45:13;4.97;;;3.90;;
16426;SDS011;8322;-33.900;151.170;2022-11-13T03:47:43;4.05;;;3.70;;
16426;SDS011;8322;-33.900;151.170;2022-11-13T03:50:12;4.97;;;3.70;;
16426;SDS011;8322;-33.900;151.170;2022-11-13T03:52:42;7.25;;;4.20;;
16426;SDS011;8322;-33.900;151.170;2022-11-13T03:55:12;4.03;;;3.60;;
16426;SDS011;8322;-33.900;151.170;2022-11-13T03:57:41;6.32;;;4.03;;
16426;SDS011;8322;-33.900;151.170;2022-11-13T04:00:13;5.35;;;4.25;;
16426;SDS011;8322;-33.900;151.170;2022-11-13T04:02:43;5.00;;;4.13;;
16426;SDS011;8322;-33.900;151.170;2022-11-13T04:05:12;4.40;;;4.00;;
16426;SDS011;8322;-33.900;151.170;2022-11-13T04:07:42;4.90;;;4.40;;
16426;SDS011;8322;-33.900;151.170;2022-11-13T04:10:11;5.00;;;4.13;;
16426;SDS011;8322;-33.900;151.170;2022-11-13T04:12:41;6.47;;;4.63;;
16426;SDS011;8322;-33.900;151.170;2022-11-13T04:15:11;5.55;;;4.60;;
16426;SDS011;8322;-33.900;151.170;2022-11-13T04:17:42;5.10;;;4.60;;
16426;SDS011;8322;-33.900;151.170;2022-11-13T04:20:12;5.03;;;3.45;;
16426;SDS011;8322;-33.900;151.170;2022-11-13T04:22:41;3.90;;;3.25;;
16426;SDS011;8322;-33.900;151.170;2022-11-13T04:25:11;4.80;;;3.95;;
16426;SDS011;8322;-33.900;151.170;2022-11-13T04:27:41;6.28;;;3.67;;
16426;SDS011;8322;-33.900;151.170;2022-11-13T04:30:11;4.85;;;3.75;;
16426;SDS011;8322;-33.900;151.170;2022-11-13T04:32:42;8.18;;;4.93;;
16426;SDS011;8322;-33.900;151.170;2022-11-13T04:35:11;4.32;;;3.67;;
16426;SDS011;8322;-33.900;151.170;2022-11-13T04:37:41;6.05;;;3.90;;
16426;SDS011;8322;-33.900;151.170;2022-11-13T04:40:11;4.60;;;3.50;;
16426;SDS011;8322;-33.900;151.170;2022-11-13T04:42:40;5.82;;;3.33;;
16426;SDS011;8322;-33.900;151.170;2022-11-13T04:45:15;4.80;;;3.40;;
16426;SDS011;8322;-33.900;151.170;2022-11-13T04:47:46;8.82;;;6.88;;
16426;SDS011;8322;-33.900;151.170;2022-11-13T04:50:16;4.05;;;2.78;;
16426;SDS011;8322;-33.900;151.170;2022-11-13T04:52:45;7.22;;;5.47;;
16426;SDS011;8322;-33.900;151.170;2022-11-13T04:55:15;4.57;;;3.15;;
16426;SDS011;8322;-33.900;151.170;2022-11-13T04:57:47;4.93;;;3.60;;
16426;SDS011;8322;-33.900;151.170;2022-11-13T05:00:17;4.57;;;2.80;;
16426;SDS011;8322;-33.900;151.170;2022-11-13T05:02:49;5.35;;;3.47;;
16426;SDS011;8322;-33.900;151.170;2022-11-13T05:05:18;3.53;;;2.95;;
16426;SDS011;8322;-33.900;151.170;2022-11-13T05:07:48;4.00;;;2.80;;
16426;SDS011;8322;-33.900;151.170;2022-11-13T05:10:18;3.47;;;3.10;;
16426;SDS011;8322;-33.900;151.170;2022-11-13T05:12:48;7.43;;;3.97;;
16426;SDS011;8322;-33.900;151.170;2022-11-13T05:15:18;4.10;;;3.20;;
16426;SDS011;8322;-33.900;151.170;2022-11-13T05:17:49;5.65;;;2.78;;
16426;SDS011;8322;-33.900;151.170;2022-11-13T05:20:19;4.88;;;1.50;;
16426;SDS011;8322;-33.900;151.170;2022-11-13T05:22:48;3.95;;;3.35;;
16426;SDS011;8322;-33.900;151.170;2022-11-13T05:25:18;5.22;;;3.70;;
16426;SDS011;8322;-33.900;151.170;2022-11-13T05:27:47;5.40;;;3.45;;
16426;SDS011;8322;-33.900;151.170;2022-11-13T05:30:17;2.40;;;2.03;;
16426;SDS011;8322;-33.900;151.170;2022-11-13T05:32:47;1.80;;;1.70;;
16426;SDS011;8322;-33.900;151.170;2022-11-13T05:35:18;1.92;;;1.60;;
16426;SDS011;8322;-33.900;151.170;2022-11-13T05:37:48;2.03;;;1.40;;
16426;SDS011;8322;-33.900;151.170;2022-11-13T05:40:17;4.55;;;2.28;;
16426;SDS011;8322;-33.900;151.170;2022-11-13T05:42:47;3.00;;;1.90;;
16426;SDS011;8322;-33.900;151.170;2022-11-13T05:45:17;2.60;;;1.88;;
16426;SDS011;8322;-33.900;151.170;2022-11-13T05:47:46;2.05;;;1.67;;
16426;SDS011;8322;-33.900;151.170;2022-11-13T05:50:18;3.58;;;1.67;;
16426;SDS011;8322;-33.900;151.170;2022-11-13T05:52:48;5.18;;;2.30;;
16426;SDS011;8322;-33.900;151.170;2022-11-13T05:55:18;4.07;;;2.55;;
16426;SDS011;8322;-33.900;151.170;2022-11-13T05:57:47;2.15;;;1.33;;
16426;SDS011;8322;-33.900;151.170;2022-11-13T06:00:17;3.70;;;2.00;;
16426;SDS011;8322;-33.900;151.170;2022-11-13T06:02:47;4.22;;;1.90;;
16426;SDS011;8322;-33.900;151.170;2022-11-13T06:05:18;3.35;;;2.30;;
16426;SDS011;8322;-33.900;151.170;2022-11-13T06:07:48;2.58;;;1.92;;
16426;SDS011;8322;-33.900;151.170;2022-11-13T06:10:17;3.33;;;1.73;;
16426;SDS011;8322;-33.900;151.170;2022-11-13T06:12:47;3.80;;;1.50;;
16426;SDS011;8322;-33.900;151.170;2022-11-13T06:15:17;2.88;;;1.67;;
16426;SDS011;8322;-33.900;151.170;2022-11-13T06:17:46;2.63;;;1.70;;
16426;SDS011;8322;-33.900;151.170;2022-11-13T06:20:16;3.35;;;1.63;;
16426;SDS011;8322;-33.900;151.170;2022-11-13T06:22:47;1.92;;;1.30;;
16426;SDS011;8322;-33.900;151.170;2022-11-13T06:25:17;5.82;;;3.30;;
16426;SDS011;8322;-33.900;151.170;2022-11-13T06:27:46;3.78;;;2.00;;
16426;SDS011;8322;-33.900;151.170;2022-11-13T06:30:16;4.32;;;2.00;;
16426;SDS011;8322;-33.900;151.170;2022-11-13T06:32:50;6.15;;;2.50;;
16426;SDS011;8322;-33.900;151.170;2022-11-13T06:35:20;3.05;;;2.50;;
16426;SDS011;8322;-33.900;151.170;2022-11-13T06:37:51;2.90;;;2.40;;
16426;SDS011;8322;-33.900;151.170;2022-11-13T06:40:22;1.65;;;1.10;;
16426;SDS011;8322;-33.900;151.170;2022-11-13T06:42:52;2.35;;;1.50;;
16426;SDS011;8322;-33.900;151.170;2022-11-13T06:45:22;4.88;;;1.90;;
16426;SDS011;8322;-33.900;151.170;2022-11-13T06:47:53;3.95;;;2.53;;
16426;SDS011;8322;-33.900;151.170;2022-11-13T06:50:22;5.38;;;3.80;;
16426;SDS011;8322;-33.900;151.170;2022-11-13T06:52:53;3.50;;;2.10;;
16426;SDS011;8322;-33.900;151.170;2022-11-13T06:55:23;2.58;;;1.33;;
16426;SDS011;8322;-33.900;151.170;2022-11-13T06:57:53;3.22;;;1.92;;
16426;SDS011;8322;-33.900;151.170;2022-11-13T07:00:23;4.45;;;2.30;;
16426;SDS011;8322;-33.900;151.170;2022-11-13T07:02:52;4.45;;;3.40;;
16426;SDS011;8322;-33.900;151.170;2022-11-13T07:05:22;5.05;;;3.25;;
16426;SDS011;8322;-33.900;151.170;2022-11-13T07:07:53;7.68;;;2.30;;
16426;SDS011;8322;-33.900;151.170;2022-11-13T07:10:23;6.25;;;1.50;;
16426;SDS011;8322;-33.900;151.170;2022-11-13T07:12:52;11.88;;;8.45;;
16426;SDS011;8322;-33.900;151.170;2022-11-13T07:15:22;4.38;;;2.95;;
16426;SDS011;8322;-33.900;151.170;2022-11-13T07:17:51;3.70;;;1.83;;
16426;SDS011;8322;-33.900;151.170;2022-11-13T07:20:21;9.88;;;7.10;;
16426;SDS011;8322;-33.900;151.170;2022-11-13T07:22:55;6.85;;;4.70;;
16426;SDS011;8322;-33.900;151.170;2022-11-13T07:25:25;8.88;;;6.00;;
16426;SDS011;8322;-33.900;151.170;2022-11-13T07:27:55;6.00;;;4.45;;
16426;SDS011;8322;-33.900;151.170;2022-11-13T07:30:25;3.08;;;2.40;;
16426;SDS011;8322;-33.900;151.170;2022-11-13T07:32:55;4.75;;;2.60;;
16426;SDS011;8322;-33.900;151.170;2022-11-13T07:35:24;3.95;;;2.47;;
16426;SDS011;8322;-33.900;151.170;2022-11-13T07:37:56;3.88;;;2.10;;
16426;SDS011;8322;-33.900;151.170;2022-11-13T07:40:26;7.45;;;2.70;;
16426;SDS011;8322;-33.900;151.170;2022-11-13T07:42:58;3.55;;;2.20;;
16426;SDS011;8322;-33.900;151.170;2022-11-13T07:45:28;8.70;;;3.38;;
16426;SDS011;8322;-33.900;151.170;2022-11-13T07:47:58;2.78;;;2.00;;
16426;SDS011;8322;-33.900;151.170;2022-11-13T07:50:28;2.97;;;1.75;;
16426;SDS011;8322;-33.900;151.170;2022-11-13T07:53:00;5.07;;;2.72;;
16426;SDS011;8322;-33.900;151.170;2022-11-13T07:55:31;3.63;;;2.33;;
16426;SDS011;8322;-33.900;151.170;2022-11-13T07:58:01;2.45;;;1.88;;
16426;SDS011;8322;-33.900;151.170;2022-11-13T08:00:31;4.35;;;2.53;;
16426;SDS011;8322;-33.900;151.170;2022-11-13T08:03:04;3.75;;;2.80;;
16426;SDS011;8322;-33.900;151.170;2022-11-13T08:05:34;3.70;;;2.30;;
16426;SDS011;8322;-33.900;151.170;2022-11-13T08:08:10;3.63;;;2.10;;
16426;SDS011;8322;-33.900;151.170;2022-11-13T08:10:39;3.42;;;2.47;;
16426;SDS011;8322;-33.900;151.170;2022-11-13T08:13:09;4.78;;;2.20;;
16426;SDS011;8322;-33.900;151.170;2022-11-13T08:15:39;3.38;;;2.15;;
16426;SDS011;8322;-33.900;151.170;2022-11-13T08:18:08;4.10;;;2.65;;
16426;SDS011;8322;-33.900;151.170;2022-11-13T08:20:38;2.38;;;2.17;;
16426;SDS011;8322;-33.900;151.170;2022-11-13T08:23:09;3.15;;;2.40;;
16426;SDS011;8322;-33.900;151.170;2022-11-13T08:25:39;2.33;;;1.95;;
16426;SDS011;8322;-33.900;151.170;2022-11-13T08:28:08;3.45;;;1.90;;
16426;SDS011;8322;-33.900;151.170;2022-11-13T08:30:38;3.65;;;2.10;;
16426;SDS011;8322;-33.900;151.170;2022-11-13T08:33:08;2.47;;;1.73;;
16426;SDS011;8322;-33.900;151.170;2022-11-13T08:35:38;2.17;;;1.80;;
16426;SDS011;8322;-33.900;151.170;2022-11-13T08:38:10;6.53;;;3.10;;
16426;SDS011;8322;-33.900;151.170;2022-11-13T08:40:39;6.28;;;2.83;;
16426;SDS011;8322;-33.900;151.170;2022-11-13T08:43:09;4.80;;;2.28;;
16426;SDS011;8322;-33.900;151.170;2022-11-13T08:45:38;2.97;;;2.20;;
16426;SDS011;8322;-33.900;151.170;2022-11-13T08:48:08;2.97;;;2.15;;
16426;SDS011;8322;-33.900;151.170;2022-11-13T08:50:38;4.50;;;2.75;;
16426;SDS011;8322;-33.900;151.170;2022-11-13T08:53:09;8.85;;;5.00;;
16426;SDS011;8322;-33.900;151.170;2022-11-13T08:55:41;6.85;;;3.13;;
16426;SDS011;8322;-33.900;151.170;2022-11-13T08:58:10;7.47;;;3.53;;
16426;SDS011;8322;-33.900;151.170;2022-11-13T09:00:40;8.38;;;4.60;;
16426;SDS011;8322;-33.900;151.170;2022-11-13T09:03:10;6.35;;;3.40;;
16426;SDS011;8322;-33.900;151.170;2022-11-13T09:05:39;7.68;;;4.10;;
16426;SDS011;8322;-33.900;151.170;2022-11-13T09:08:11;9.02;;;4.88;;
16426;SDS011;8322;-33.900;151.170;2022-11-13T09:10:41;14.02;;;7.28;;
16426;SDS011;8322;-33.900;151.170;2022-11-13T09:13:10;10.02;;;5.90;;
16426;SDS011;8322;-33.900;151.170;2022-11-13T09:15:40;5.70;;;4.28;;
16426;SDS011;8322;-33.900;151.170;2022-11-13T09:18:09;8.20;;;3.83;;
16426;SDS011;8322;-33.900;151.170;2022-11-13T09:20:39;7.25;;;3.53;;
16426;SDS011;8322;-33.900;151.170;2022-11-13T09:23:08;7.97;;;3.45;;
16426;SDS011;8322;-33.900;151.170;2022-11-13T09:25:40;6.35;;;3.28;;
16426;SDS011;8322;-33.900;151.170;2022-11-13T09:28:09;5.70;;;3.65;;
16426;SDS011;8322;-33.900;151.170;2022-11-13T09:30:40;5.13;;;3.28;;
16426;SDS011;8322;-33.900;151.170;2022-11-13T09:33:10;4.75;;;2.85;;
16426;SDS011;8322;-33.900;151.170;2022-11-13T09:35:40;4.57;;;2.67;;
16426;SDS011;8322;-33.900;151.170;2022-11-13T09:38:12;4.88;;;2.83;;
16426;SDS011;8322;-33.900;151.170;2022-11-13T09:40:47;5.78;;;3.00;;
16426;SDS011;8322;-33.900;151.170;2022-11-13T09:43:24;2.67;;;2.08;;
16426;SDS011;8322;-33.900;151.170;2022-11-13T09:45:56;7.72;;;4.80;;
16426;SDS011;8322;-33.900;151.170;2022-11-13T09:48:28;8.23;;;3.60;;
16426;SDS011;8322;-33.900;151.170;2022-11-13T09:50:59;5.63;;;4.47;;
16426;SDS011;8322;-33.900;151.170;2022-11-13T09:53:33;7.10;;;5.25;;
16426;SDS011;8322;-33.900;151.170;2022-11-13T09:56:07;7.55;;;5.00;;
16426;SDS011;8322;-33.900;151.170;2022-11-13T09:58:44;6.22;;;4.10;;
16426;SDS011;8322;-33.900;151.170;2022-11-13T10:01:20;5.38;;;3.10;;
16426;SDS011;8322;-33.900;151.170;2022-11-13T10:03:52;3.95;;;2.80;;
16426;SDS011;8322;-33.900;151.170;2022-11-13T10:06:26;3.10;;;2.50;;
16426;SDS011;8322;-33.900;151.170;2022-11-13T10:08:57;3.53;;;2.17;;
16426;SDS011;8322;-33.900;151.170;2022-11-13T10:11:32;4.28;;;2.80;;
16426;SDS011;8322;-33.900;151.170;2022-11-13T10:14:15;3.65;;;2.72;;
16426;SDS011;8322;-33.900;151.170;2022-11-13T10:16:47;6.93;;;2.92;;
16426;SDS011;8322;-33.900;151.170;2022-11-13T10:19:20;3.13;;;2.45;;
16426;SDS011;8322;-33.900;151.170;2022-11-13T10:21:51;3.63;;;2.70;;
16426;SDS011;8322;-33.900;151.170;2022-11-13T10:24:23;4.78;;;2.72;;
16426;SDS011;8322;-33.900;151.170;2022-11-13T10:26:57;5.70;;;3.30;;
16426;SDS011;8322;-33.900;151.170;2022-11-13T10:29:27;4.55;;;3.22;;
16426;SDS011;8322;-33.900;151.170;2022-11-13T10:31:57;4.45;;;3.03;;
16426;SDS011;8322;-33.900;151.170;2022-11-13T10:34:27;4.18;;;3.60;;
16426;SDS011;8322;-33.900;151.170;2022-11-13T10:37:02;5.50;;;3.25;;
16426;SDS011;8322;-33.900;151.170;2022-11-13T10:39:40;6.47;;;4.50;;
16426;SDS011;8322;-33.900;151.170;2022-11-13T10:42:20;7.30;;;4.93;;
16426;SDS011;8322;-33.900;151.170;2022-11-13T10:44:54;7.00;;;4.80;;
16426;SDS011;8322;-33.900;151.170;2022-11-13T10:47:25;6.85;;;5.30;;
16426;SDS011;8322;-33.900;151.170;2022-11-13T10:49:55;9.18;;;5.68;;
16426;SDS011;8322;-33.900;151.170;2022-11-13T10:52:25;7.53;;;3.70;;
16426;SDS011;8322;-33.900;151.170;2022-11-13T10:55:10;6.10;;;4.15;;
16426;SDS011;8322;-33.900;151.170;2022-11-13T10:57:52;5.72;;;3.50;;
16426;SDS011;8322;-33.900;151.170;2022-11-13T11:00:23;6.57;;;3.78;;
16426;SDS011;8322;-33.900;151.170;2022-11-13T11:02:54;6.47;;;3.60;;
16426;SDS011;8322;-33.900;151.170;2022-11-13T11:05:24;4.90;;;3.50;;
16426;SDS011;8322;-33.900;151.170;2022-11-13T11:07:54;4.03;;;3.40;;
16426;SDS011;8322;-33.900;151.170;2022-11-13T11:10:31;5.97;;;3.50;;
16426;SDS011;8322;-33.900;151.170;2022-11-13T11:13:04;4.75;;;4.00;;
16426;SDS011;8322;-33.900;151.170;2022-11-13T11:15:39;5.22;;;3.90;;
16426;SDS011;8322;-33.900;151.170;2022-11-13T11:18:17;4.80;;;3.92;;
16426;SDS011;8322;-33.900;151.170;2022-11-13T11:20:54;5.00;;;4.50;;
16426;SDS011;8322;-33.900;151.170;2022-11-13T11:23:30;5.38;;;3.90;;
16426;SDS011;8322;-33.900;151.170;2022-11-13T11:26:01;5.10;;;4.35;;
16426;SDS011;8322;-33.900;151.170;2022-11-13T11:28:34;5.03;;;3.72;;
16426;SDS011;8322;-33.900;151.170;2022-11-13T11:31:11;6.05;;;4.50;;
16426;SDS011;8322;-33.900;151.170;2022-11-13T11:33:47;4.40;;;3.80;;
16426;SDS011;8322;-33.900;151.170;2022-11-13T11:36:21;5.80;;;4.15;;
16426;SDS011;8322;-33.900;151.170;2022-11-13T11:38:54;7.90;;;5.60;;
16426;SDS011;8322;-33.900;151.170;2022-11-13T11:41:29;5.55;;;4.78;;
16426;SDS011;8322;-33.900;151.170;2022-11-13T11:44:03;5.28;;;4.50;;
16426;SDS011;8322;-33.900;151.170;2022-11-13T11:46:33;5.57;;;4.60;;
16426;SDS011;8322;-33.900;151.170;2022-11-13T11:49:04;6.22;;;4.78;;
16426;SDS011;8322;-33.900;151.170;2022-11-13T11:51:33;5.63;;;4.90;;
16426;SDS011;8322;-33.900;151.170;2022-11-13T11:54:07;6.07;;;4.53;;
16426;SDS011;8322;-33.900;151.170;2022-11-13T11:56:41;5.45;;;4.95;;
16426;SDS011;8322;-33.900;151.170;2022-11-13T12:02:01;6.32;;;4.95;;
16426;SDS011;8322;-33.900;151.170;2022-11-13T12:04:43;7.70;;;4.57;;
16426;SDS011;8322;-33.900;151.170;2022-11-13T12:07:21;5.97;;;4.82;;
16426;SDS011;8322;-33.900;151.170;2022-11-13T12:09:54;6.05;;;5.07;;
16426;SDS011;8322;-33.900;151.170;2022-11-13T12:12:29;5.82;;;4.80;;
16426;SDS011;8322;-33.900;151.170;2022-11-13T12:15:02;4.88;;;4.45;;
16426;SDS011;8322;-33.900;151.170;2022-11-13T12:17:40;5.03;;;4.10;;
16426;SDS011;8322;-33.900;151.170;2022-11-13T12:20:15;5.18;;;4.55;;
16426;SDS011;8322;-33.900;151.170;2022-11-13T12:22:47;4.82;;;4.38;;
16426;SDS011;8322;-33.900;151.170;2022-11-13T12:25:20;4.68;;;4.18;;
16426;SDS011;8322;-33.900;151.170;2022-11-13T12:27:54;5.93;;;4.38;;
16426;SDS011;8322;-33.900;151.170;2022-11-13T12:30:26;4.88;;;4.38;;
16426;SDS011;8322;-33.900;151.170;2022-11-13T12:33:05;4.47;;;4.07;;
16426;SDS011;8322;-33.900;151.170;2022-11-13T12:35:36;4.97;;;4.47;;
16426;SDS011;8322;-33.900;151.170;2022-11-13T12:38:09;4.95;;;3.88;;
16426;SDS011;8322;-33.900;151.170;2022-11-13T12:40:44;4.95;;;4.45;;
16426;SDS011;8322;-33.900;151.170;2022-11-13T12:43:25;6.30;;;3.90;;
16426;SDS011;8322;-33.900;151.170;2022-11-13T12:45:57;5.15;;;4.20;;
16426;SDS011;8322;-33.900;151.170;2022-11-13T12:48:33;5.07;;;3.90;;
16426;SDS011;8322;-33.900;151.170;2022-11-13T12:51:04;4.40;;;4.00;;
16426;SDS011;8322;-33.900;151.170;2022-11-13T12:53:42;4.25;;;3.85;;
16426;SDS011;8322;-33.900;151.170;2022-11-13T12:56:16;3.90;;;3.47;;
16426;SDS011;8322;-33.900;151.170;2022-11-13T12:58:52;4.82;;;3.70;;
16426;SDS011;8322;-33.900;151.170;2022-11-13T13:01:22;4.45;;;4.05;;
16426;SDS011;8322;-33.900;151.170;2022-11-13T13:04:01;4.03;;;3.53;;
16426;SDS011;8322;-33.900;151.170;2022-11-13T13:06:38;4.50;;;4.03;;
16426;SDS011;8322;-33.900;151.170;2022-11-13T13:09:12;7.55;;;4.07;;
16426;SDS011;8322;-33.900;151.170;2022-11-13T13:11:47;4.75;;;3.90;;
16426;SDS011;8322;-33.900;151.170;2022-11-13T13:14:24;6.15;;;3.92;;
16426;SDS011;8322;-33.900;151.170;2022-11-13T13:17:04;5.75;;;3.67;;
16426;SDS011;8322;-33.900;151.170;2022-11-13T13:19:36;5.15;;;3.90;;
16426;SDS011;8322;-33.900;151.170;2022-11-13T13:22:08;4.90;;;3.90;;
16426;SDS011;8322;-33.900;151.170;2022-11-13T13:24:38;5.57;;;4.03;;
16426;SDS011;8322;-33.900;151.170;2022-11-13T13:27:20;4.47;;;3.83;;
16426;SDS011;8322;-33.900;151.170;2022-11-13T13:29:50;4.78;;;4.05;;
16426;SDS011;8322;-33.900;151.170;2022-11-13T13:32:21;4.38;;;3.33;;
16426;SDS011;8322;-33.900;151.170;2022-11-13T13:34:55;3.80;;;3.35;;
16426;SDS011;8322;-33.900;151.170;2022-11-13T13:37:30;4.03;;;3.50;;
16426;SDS011;8322;-33.900;151.170;2022-11-13T13:40:08;5.07;;;3.70;;
16426;SDS011;8322;-33.900;151.170;2022-11-13T13:42:43;6.65;;;3.28;;
16426;SDS011;8322;-33.900;151.170;2022-11-13T13:45:19;4.60;;;3.85;;
16426;SDS011;8322;-33.900;151.170;2022-11-13T13:47:50;4.88;;;3.83;;
16426;SDS011;8322;-33.900;151.170;2022-11-13T13:50:23;3.78;;;3.47;;
16426;SDS011;8322;-33.900;151.170;2022-11-13T13:52:53;4.53;;;3.70;;
16426;SDS011;8322;-33.900;151.170;2022-11-13T13:55:25;4.07;;;3.67;;
16426;SDS011;8322;-33.900;151.170;2022-11-13T13:57:55;3.80;;;3.42;;
16426;SDS011;8322;-33.900;151.170;2022-11-13T14:00:25;4.10;;;3.10;;
16426;SDS011;8322;-33.900;151.170;2022-11-13T14:02:55;3.15;;;2.85;;
16426;SDS011;8322;-33.900;151.170;2022-11-13T14:05:28;3.70;;;2.85;;
16426;SDS011;8322;-33.900;151.170;2022-11-13T14:07:58;4.10;;;2.67;;
16426;SDS011;8322;-33.900;151.170;2022-11-13T14:10:32;3.25;;;2.20;;
16426;SDS011;8322;-33.900;151.170;2022-11-13T14:13:03;3.67;;;2.42;;
16426;SDS011;8322;-33.900;151.170;2022-11-13T14:15:33;6.28;;;2.30;;
16426;SDS011;8322;-33.900;151.170;2022-11-13T14:18:04;2.38;;;2.05;;
16426;SDS011;8322;-33.900;151.170;2022-11-13T14:20:38;3.92;;;2.53;;
16426;SDS011;8322;-33.900;151.170;2022-11-13T14:23:09;14.07;;;4.70;;
16426;SDS011;8322;-33.900;151.170;2022-11-13T14:25:40;6.05;;;2.95;;
16426;SDS011;8322;-33.900;151.170;2022-11-13T14:28:20;5.85;;;2.80;;
16426;SDS011;8322;-33.900;151.170;2022-11-13T14:30:53;6.53;;;2.47;;
16426;SDS011;8322;-33.900;151.170;2022-11-13T14:33:23;6.00;;;1.60;;
16426;SDS011;8322;-33.900;151.170;2022-11-13T14:35:56;3.95;;;1.00;;
16426;SDS011;8322;-33.900;151.170;2022-11-13T14:38:26;7.15;;;1.60;;
16426;SDS011;8322;-33.900;151.170;2022-11-13T14:40:59;5.55;;;1.15;;
16426;SDS011;8322;-33.900;151.170;2022-11-13T14:43:30;3.17;;;1.40;;
16426;SDS011;8322;-33.900;151.170;2022-11-13T14:46:00;5.57;;;1.15;;